createdAt,value
2023-05-24T00:01:44.537Z,2.97
2023-05-24T00:04:16.325Z,2.90
2023-05-24T00:06:48.534Z,2.60
2023-05-24T00:09:22.957Z,2.75
2023-05-24T00:11:54.566Z,2.53
2023-05-24T00:14:26.275Z,2.22
2023-05-24T00:16:58.100Z,2.45
2023-05-24T00:19:29.855Z,1.98
2023-05-24T00:22:01.555Z,1.58
2023-05-24T00:24:33.193Z,1.77
2023-05-24T00:27:05.486Z,2.42
2023-05-24T00:29:37.127Z,3.17
2023-05-24T00:32:08.969Z,1.55
2023-05-24T00:34:40.661Z,1.98
2023-05-24T00:37:12.975Z,1.83
2023-05-24T00:39:44.649Z,1.58
2023-05-24T00:42:16.297Z,1.55
2023-05-24T00:44:47.983Z,1.08
2023-05-24T00:47:19.765Z,1.00
2023-05-24T00:49:51.378Z,0.60
2023-05-24T00:52:23.258Z,1.08
2023-05-24T00:54:56.996Z,1.48
2023-05-24T00:57:32.555Z,0.85
2023-05-24T01:00:05.923Z,0.90
2023-05-24T01:02:38.043Z,1.45
2023-05-24T01:05:13.590Z,1.38
2023-05-24T01:08:18.937Z,0.75
2023-05-24T01:10:52.005Z,0.52
2023-05-24T01:13:46.217Z,0.60
2023-05-24T01:16:28.213Z,0.65
2023-05-24T01:19:26.264Z,0.40
2023-05-24T01:22:32.520Z,0.20
2023-05-24T01:25:37.906Z,0.80
2023-05-24T01:28:12.968Z,2.20
2023-05-24T01:30:46.808Z,0.43
2023-05-24T01:33:18.840Z,0.60
2023-05-24T01:35:50.562Z,1.20
2023-05-24T01:38:22.281Z,0.77
2023-05-24T01:41:15.787Z,1.02
2023-05-24T01:44:00.114Z,0.40
2023-05-24T01:46:39.203Z,0.75
2023-05-24T01:49:13.899Z,0.25
2023-05-24T01:52:02.526Z,0.25
2023-05-24T01:54:39.014Z,0.32
2023-05-24T01:57:11.704Z,0.40
2023-05-24T01:59:44.568Z,0.40
2023-05-24T02:02:16.461Z,0.40
2023-05-24T02:04:48.221Z,0.38
2023-05-24T02:07:20.063Z,0.28
2023-05-24T02:09:51.690Z,0.08
2023-05-24T02:12:23.401Z,0.05
2023-05-24T02:14:55.270Z,0.20
2023-05-24T02:17:27.699Z,1.35
2023-05-24T02:20:00.360Z,1.65
2023-05-24T02:22:32.008Z,0.25
2023-05-24T02:25:04.039Z,0.68
2023-05-24T02:27:35.632Z,1.77
2023-05-24T02:30:08.645Z,0.60
2023-05-24T02:32:40.928Z,1.15
2023-05-24T02:35:12.911Z,0.90
2023-05-24T02:37:44.665Z,0.40
2023-05-24T02:40:16.389Z,0.85
2023-05-24T02:42:47.975Z,0.40
2023-05-24T02:45:19.705Z,0.30
2023-05-24T02:47:51.324Z,0.57
2023-05-24T02:50:22.989Z,0.50
2023-05-24T02:52:54.577Z,0.40
2023-05-24T02:55:27.005Z,0.63
2023-05-24T02:57:58.592Z,0.80
2023-05-24T03:00:30.385Z,1.00
2023-05-24T03:03:03.428Z,1.10
2023-05-24T03:05:35.176Z,0.55
2023-05-24T03:08:07.104Z,0.60
2023-05-24T03:10:41.008Z,0.60
2023-05-24T03:13:12.728Z,0.63
2023-05-24T03:15:44.374Z,0.77
2023-05-24T03:18:16.131Z,0.70
2023-05-24T03:20:47.853Z,2.58
2023-05-24T03:23:19.605Z,1.48
2023-05-24T03:25:51.163Z,1.75
2023-05-24T03:28:22.793Z,1.02
2023-05-24T03:30:54.557Z,1.00
2023-05-24T03:33:26.193Z,1.23
2023-05-24T03:36:00.565Z,0.70
2023-05-24T03:38:35.338Z,0.50
2023-05-24T03:41:06.966Z,0.98
2023-05-24T03:43:41.540Z,0.98
2023-05-24T03:46:16.323Z,1.15
2023-05-24T03:48:49.661Z,1.23
2023-05-24T03:51:29.431Z,1.50
2023-05-24T03:54:01.069Z,1.20
2023-05-24T03:56:35.768Z,1.00
2023-05-24T03:59:07.397Z,1.48
2023-05-24T04:01:39.566Z,1.02
2023-05-24T04:04:11.318Z,0.75
2023-05-24T04:06:42.977Z,1.08
2023-05-24T04:09:15.826Z,1.05
2023-05-24T04:11:47.455Z,1.65
2023-05-24T04:14:19.235Z,1.00
2023-05-24T04:16:51.925Z,0.95
2023-05-24T04:19:23.611Z,1.35
2023-05-24T04:21:55.901Z,0.50
2023-05-24T04:24:27.531Z,1.08
2023-05-24T04:27:02.537Z,2.92
2023-05-24T04:32:06.941Z,1.13
2023-05-24T04:34:42.831Z,1.33
2023-05-24T04:37:24.564Z,1.00
2023-05-24T04:39:56.642Z,1.95
2023-05-24T04:42:32.243Z,2.50
2023-05-24T04:45:04.129Z,1.75
2023-05-24T04:47:35.804Z,1.55
2023-05-24T04:50:08.286Z,1.00
2023-05-24T04:52:42.291Z,1.80
2023-05-24T04:55:13.862Z,1.88
2023-05-24T04:57:45.556Z,1.83
2023-05-24T05:00:18.484Z,1.30
2023-05-24T05:02:50.129Z,1.33
2023-05-24T05:05:21.861Z,1.50
2023-05-24T05:08:00.626Z,2.63
2023-05-24T05:10:32.309Z,1.58
2023-05-24T05:13:03.916Z,1.50
2023-05-24T05:15:35.529Z,3.65
2023-05-24T05:18:07.216Z,2.00
2023-05-24T05:20:38.865Z,3.15
2023-05-24T05:23:10.509Z,2.70
2023-05-24T05:25:42.078Z,2.13
2023-05-24T05:28:13.727Z,3.30
2023-05-24T05:30:45.599Z,4.07
2023-05-24T05:33:17.249Z,3.90
2023-05-24T05:35:49.033Z,4.88
2023-05-24T05:38:20.703Z,4.28
2023-05-24T05:40:52.556Z,5.43
2023-05-24T05:43:25.163Z,4.13
2023-05-24T05:45:56.893Z,3.13
2023-05-24T05:48:28.624Z,5.03
2023-05-24T05:51:00.314Z,4.75
2023-05-24T05:53:34.596Z,4.10
2023-05-24T05:56:08.920Z,3.42
2023-05-24T05:58:40.544Z,4.07
2023-05-24T06:01:12.250Z,3.88
2023-05-24T06:03:43.994Z,4.38
2023-05-24T06:06:15.765Z,3.38
2023-05-24T06:08:54.584Z,5.15
2023-05-24T06:11:29.566Z,3.83
2023-05-24T06:14:01.337Z,3.53
2023-05-24T06:16:32.993Z,3.67
2023-05-24T06:19:06.557Z,4.40
2023-05-24T06:21:38.420Z,4.57
2023-05-24T06:24:10.287Z,3.75
2023-05-24T06:26:42.203Z,4.47
2023-05-24T06:29:14.110Z,3.50
2023-05-24T06:31:47.408Z,3.40
2023-05-24T06:34:21.582Z,4.45
2023-05-24T06:36:53.448Z,3.80
2023-05-24T06:39:25.486Z,3.60
2023-05-24T06:41:57.658Z,4.25
2023-05-24T06:44:34.336Z,3.58
2023-05-24T06:47:06.857Z,4.15
2023-05-24T06:49:39.489Z,3.85
2023-05-24T06:52:11.688Z,3.97
2023-05-24T06:54:43.823Z,3.75
2023-05-24T06:57:18.800Z,3.65
2023-05-24T06:59:50.429Z,3.03
2023-05-24T07:02:26.716Z,2.90
2023-05-24T07:04:59.018Z,2.75
2023-05-24T07:07:31.280Z,4.88
2023-05-24T07:10:02.874Z,2.67
2023-05-24T07:12:34.892Z,2.92
2023-05-24T07:15:08.724Z,3.25
2023-05-24T07:17:40.942Z,3.28
2023-05-24T07:20:13.867Z,2.95
2023-05-24T07:22:47.962Z,2.53
2023-05-24T07:25:19.594Z,3.05
2023-05-24T07:27:51.404Z,2.75
2023-05-24T07:30:31.594Z,2.40
2023-05-24T07:33:07.199Z,2.05
2023-05-24T07:35:39.961Z,4.03
2023-05-24T07:38:14.268Z,2.88
2023-05-24T07:40:45.927Z,2.58
2023-05-24T07:43:17.622Z,2.10
2023-05-24T07:45:49.245Z,2.45
2023-05-24T07:48:21.746Z,2.60
2023-05-24T07:50:53.330Z,2.17
2023-05-24T07:53:24.923Z,1.70
2023-05-24T07:55:56.715Z,1.52
2023-05-24T07:58:28.453Z,1.95
2023-05-24T08:01:00.310Z,1.70
2023-05-24T08:03:32.538Z,1.50
2023-05-24T08:06:07.431Z,2.50
2023-05-24T08:08:41.080Z,1.83
2023-05-24T08:11:12.671Z,1.52
2023-05-24T08:13:45.058Z,1.73
2023-05-24T08:16:16.640Z,1.63
2023-05-24T08:18:48.351Z,2.22
2023-05-24T08:21:20.594Z,1.60
2023-05-24T08:23:52.538Z,1.42
2023-05-24T08:26:24.389Z,1.70
2023-05-24T08:28:56.115Z,1.92
2023-05-24T08:31:27.866Z,1.40
2023-05-24T08:33:59.995Z,1.55
2023-05-24T08:36:32.886Z,1.42
2023-05-24T08:39:05.170Z,1.33
2023-05-24T08:41:40.097Z,0.85
2023-05-24T08:44:13.707Z,1.48
2023-05-24T08:46:46.106Z,1.42
2023-05-24T08:49:18.686Z,1.35
2023-05-24T08:51:52.303Z,1.02
2023-05-24T08:54:24.018Z,1.88
2023-05-24T08:56:56.177Z,2.92
2023-05-24T08:59:27.965Z,1.63
2023-05-24T09:02:01.057Z,1.48
2023-05-24T09:04:35.140Z,0.75
2023-05-24T09:07:12.843Z,1.20
2023-05-24T09:09:57.074Z,1.20
2023-05-24T09:12:38.145Z,1.48
2023-05-24T09:15:11.011Z,1.73
2023-05-24T09:17:43.264Z,1.20
2023-05-24T09:20:15.484Z,0.93
2023-05-24T09:22:53.213Z,1.33
2023-05-24T09:25:28.183Z,1.00
2023-05-24T09:28:08.497Z,1.13
2023-05-24T09:30:44.221Z,1.15
2023-05-24T09:33:16.590Z,1.70
2023-05-24T09:35:49.190Z,1.05
2023-05-24T09:38:20.808Z,0.68
2023-05-24T09:41:09.511Z,1.60
2023-05-24T09:43:50.414Z,1.58
2023-05-24T09:46:22.292Z,1.38
2023-05-24T09:49:03.656Z,0.90
2023-05-24T09:51:39.168Z,0.63
2023-05-24T09:54:12.822Z,1.08
2023-05-24T09:56:46.810Z,1.60
2023-05-24T09:59:19.655Z,1.10
2023-05-24T10:02:07.055Z,1.25
2023-05-24T10:04:40.164Z,1.05
2023-05-24T10:07:12.383Z,0.93
2023-05-24T10:09:44.844Z,1.60
2023-05-24T10:12:16.753Z,1.58
2023-05-24T10:14:49.541Z,3.55
2023-05-24T10:17:21.273Z,1.05
2023-05-24T10:19:54.337Z,1.15
2023-05-24T10:22:26.827Z,1.58
2023-05-24T10:25:00.176Z,1.65
2023-05-24T10:27:33.265Z,2.42
2023-05-24T10:30:14.242Z,2.00
2023-05-24T10:35:20.404Z,1.30
2023-05-24T10:37:52.427Z,4.90
2023-05-24T10:40:27.642Z,1.83
2023-05-24T10:43:08.465Z,1.35
2023-05-24T10:45:41.383Z,1.38
2023-05-24T10:48:13.383Z,1.35
2023-05-24T10:50:45.738Z,1.30
2023-05-24T10:53:27.849Z,1.45
2023-05-24T10:56:07.079Z,2.97
2023-05-24T10:58:58.617Z,1.55
2023-05-24T11:01:33.815Z,1.67
2023-05-24T11:04:17.140Z,1.50
2023-05-24T11:06:55.647Z,1.25
2023-05-24T11:09:28.657Z,1.83
2023-05-24T11:12:08.985Z,1.90
2023-05-24T11:14:40.801Z,2.05
2023-05-24T11:17:12.456Z,2.35
2023-05-24T11:19:50.819Z,1.13
2023-05-24T11:22:25.466Z,1.48
2023-05-24T11:24:58.203Z,1.98
2023-05-24T11:27:39.479Z,1.27
2023-05-24T11:30:12.541Z,1.60
2023-05-24T11:32:48.407Z,1.88
2023-05-24T11:35:24.784Z,1.38
2023-05-24T11:37:59.578Z,2.17
2023-05-24T11:40:33.963Z,1.95
2023-05-24T11:43:06.798Z,1.95
2023-05-24T11:45:39.802Z,2.33
2023-05-24T11:48:12.569Z,1.88
2023-05-24T11:50:50.526Z,1.70
2023-05-24T11:53:22.587Z,2.03
2023-05-24T11:55:54.505Z,5.30
2023-05-24T11:58:44.857Z,2.00
2023-05-24T12:01:27.462Z,3.05
2023-05-24T12:04:01.511Z,3.08
2023-05-24T12:06:42.107Z,2.63
2023-05-24T12:09:15.076Z,2.45
2023-05-24T12:11:49.946Z,3.33
2023-05-24T12:17:01.973Z,3.33
2023-05-24T12:19:37.213Z,2.70
2023-05-24T12:22:09.235Z,2.70
2023-05-24T12:24:41.400Z,1.90
2023-05-24T12:27:13.525Z,2.58
2023-05-24T12:29:45.665Z,4.22
2023-05-24T12:32:20.237Z,2.80
2023-05-24T12:34:52.020Z,3.08
2023-05-24T12:37:23.725Z,2.83
2023-05-24T12:39:55.382Z,3.28
2023-05-24T12:42:27.382Z,2.58
2023-05-24T12:44:59.044Z,2.90
2023-05-24T12:47:30.762Z,4.05
2023-05-24T12:50:02.782Z,3.75
2023-05-24T12:52:34.377Z,3.17
2023-05-24T12:55:07.001Z,3.40
2023-05-24T12:57:38.652Z,3.60
2023-05-24T13:00:14.158Z,3.28
2023-05-24T13:02:45.870Z,2.22
2023-05-24T13:05:17.544Z,3.15
2023-05-24T13:07:51.303Z,4.32
2023-05-24T13:10:24.675Z,4.72
2023-05-24T13:12:59.628Z,3.65
2023-05-24T13:15:34.317Z,4.22
2023-05-24T13:20:38.124Z,3.70
2023-05-24T13:23:09.837Z,3.28
2023-05-24T13:25:41.609Z,3.58
2023-05-24T13:28:18.126Z,3.95
2023-05-24T13:30:49.786Z,3.60
2023-05-24T13:33:21.621Z,2.63
2023-05-24T13:35:54.534Z,3.35
2023-05-24T13:38:26.358Z,7.47
2023-05-24T13:40:58.096Z,2.60
2023-05-24T13:43:29.701Z,3.95
2023-05-24T13:46:01.632Z,5.15
2023-05-24T13:48:33.416Z,4.47
2023-05-24T13:51:08.450Z,3.58
2023-05-24T13:53:40.199Z,3.72
2023-05-24T13:56:11.818Z,2.75
2023-05-24T13:58:43.494Z,3.15
2023-05-24T14:01:18.381Z,3.40
2023-05-24T14:03:50.059Z,2.72
2023-05-24T14:06:32.503Z,2.47
2023-05-24T14:09:07.577Z,2.60
2023-05-24T14:11:39.433Z,2.63
2023-05-24T14:16:54.928Z,2.53
2023-05-24T14:19:26.759Z,1.98
2023-05-24T14:22:01.250Z,3.90
2023-05-24T14:24:32.895Z,2.60
2023-05-24T14:27:07.082Z,2.28
2023-05-24T14:29:41.829Z,2.08
2023-05-24T14:32:17.822Z,1.77
2023-05-24T14:34:49.644Z,4.88
2023-05-24T14:37:21.297Z,5.57
2023-05-24T14:39:56.062Z,2.97
2023-05-24T14:44:59.263Z,3.15
2023-05-24T14:47:31.038Z,2.25
2023-05-24T14:50:02.959Z,2.75
2023-05-24T14:52:37.390Z,2.47
2023-05-24T14:55:09.572Z,2.88
2023-05-24T14:57:41.953Z,3.17
2023-05-24T15:00:14.809Z,2.80
2023-05-24T15:02:46.744Z,2.40
2023-05-24T15:05:18.473Z,2.53
2023-05-24T15:07:50.132Z,2.88
2023-05-24T15:10:21.804Z,2.35
2023-05-24T15:12:53.507Z,2.90
2023-05-24T15:15:25.236Z,2.47
2023-05-24T15:17:59.599Z,3.03
2023-05-24T15:20:35.860Z,2.80
2023-05-24T15:23:10.641Z,4.32
2023-05-24T15:25:43.073Z,2.65
2023-05-24T15:28:17.169Z,2.65
2023-05-24T15:30:49.135Z,3.05
2023-05-24T15:33:20.764Z,2.95
2023-05-24T15:35:52.417Z,3.70
2023-05-24T15:38:24.685Z,2.55
2023-05-24T15:40:56.498Z,3.17
2023-05-24T15:43:29.781Z,2.75
2023-05-24T15:46:01.392Z,3.03
2023-05-24T15:48:33.143Z,4.70
2023-05-24T15:51:58.152Z,3.97
2023-05-24T15:53:58.697Z,1.45
2023-05-24T15:56:32.484Z,2.17
2023-05-24T15:59:04.134Z,1.60
2023-05-24T16:01:35.918Z,2.03
2023-05-24T16:04:07.710Z,2.80
2023-05-24T16:06:39.437Z,1.73
2023-05-24T16:09:11.245Z,2.55
2023-05-24T16:11:42.912Z,1.88
2023-05-24T16:14:17.886Z,2.33
2023-05-24T16:19:21.499Z,1.20
2023-05-24T16:21:53.149Z,1.50
2023-05-24T16:24:24.746Z,3.03
2023-05-24T16:26:57.885Z,3.88
2023-05-24T16:29:30.282Z,2.22
2023-05-24T16:32:04.333Z,1.27
2023-05-24T16:34:52.124Z,1.48
2023-05-24T16:37:27.563Z,2.35
2023-05-24T16:40:02.538Z,1.67
2023-05-24T16:42:34.353Z,2.30
2023-05-24T16:45:06.763Z,1.40
2023-05-24T16:47:38.597Z,1.75
2023-05-24T16:50:15.054Z,1.98
2023-05-24T16:52:47.403Z,1.83
2023-05-24T16:55:19.384Z,1.33
2023-05-24T16:57:51.795Z,1.73
2023-05-24T17:00:23.488Z,1.27
2023-05-24T17:02:55.445Z,1.75
2023-05-24T17:05:29.224Z,1.58
2023-05-24T17:08:00.886Z,1.30
2023-05-24T17:10:33.126Z,1.73
2023-05-24T17:13:07.025Z,2.28
2023-05-24T17:15:38.654Z,0.90
2023-05-24T17:18:10.323Z,1.23
2023-05-24T17:20:42.530Z,1.27
2023-05-24T17:23:19.131Z,1.20
2023-05-24T17:25:53.514Z,1.23
2023-05-24T17:28:27.803Z,1.58
2023-05-24T17:31:03.078Z,1.75
2023-05-24T17:33:34.871Z,1.00
2023-05-24T17:36:07.047Z,1.13
2023-05-24T17:38:39.443Z,1.65
2023-05-24T17:41:14.029Z,1.60
2023-05-24T17:43:45.673Z,1.02
2023-05-24T17:46:17.603Z,3.67
2023-05-24T17:48:50.278Z,1.02
2023-05-24T17:51:24.416Z,1.25
2023-05-24T17:53:56.321Z,1.98
2023-05-24T17:56:29.109Z,1.92
2023-05-24T17:59:00.739Z,1.35
2023-05-24T18:01:32.874Z,1.33
2023-05-24T18:04:07.635Z,1.45
2023-05-24T18:06:40.166Z,1.00
2023-05-24T18:09:13.351Z,1.08
2023-05-24T18:11:44.953Z,0.63
2023-05-24T18:14:17.220Z,1.20
2023-05-24T18:16:49.231Z,1.70
2023-05-24T18:19:21.085Z,1.92
2023-05-24T18:21:53.350Z,1.25
2023-05-24T18:24:25.009Z,1.13
2023-05-24T18:26:56.674Z,1.67
2023-05-24T18:29:28.442Z,1.00
2023-05-24T18:32:00.293Z,1.10
2023-05-24T18:34:32.147Z,1.15
2023-05-24T18:37:06.480Z,0.55
2023-05-24T18:39:38.392Z,1.25
2023-05-24T18:42:12.619Z,1.15
2023-05-24T18:44:44.696Z,1.00
2023-05-24T18:47:16.526Z,1.80
2023-05-24T18:49:48.220Z,1.02
2023-05-24T18:52:20.105Z,1.27
2023-05-24T18:54:51.797Z,0.98
2023-05-24T18:57:24.158Z,1.10
2023-05-24T18:59:57.909Z,0.47
2023-05-24T19:02:29.756Z,1.38
2023-05-24T19:05:04.574Z,1.25
2023-05-24T19:07:39.267Z,0.65
2023-05-24T19:10:12.144Z,0.80
2023-05-24T19:12:44.347Z,1.42
2023-05-24T19:15:16.917Z,0.45
2023-05-24T19:17:48.796Z,0.47
2023-05-24T19:20:20.813Z,1.08
2023-05-24T19:22:52.917Z,1.65
2023-05-24T19:25:25.116Z,0.88
2023-05-24T19:27:59.745Z,1.02
2023-05-24T19:30:34.662Z,1.08
2023-05-24T19:33:07.417Z,1.38
2023-05-24T19:35:39.160Z,0.90
2023-05-24T19:38:13.036Z,0.98
2023-05-24T19:40:45.241Z,1.10
2023-05-24T19:43:16.964Z,1.30
2023-05-24T19:45:52.404Z,0.80
2023-05-24T19:48:24.689Z,0.77
2023-05-24T19:50:56.394Z,1.00
2023-05-24T19:53:28.912Z,0.95
2023-05-24T19:56:00.993Z,1.27
2023-05-24T19:58:32.864Z,1.00
2023-05-24T20:01:07.336Z,0.93
2023-05-24T20:03:48.197Z,1.33
2023-05-24T20:06:20.046Z,1.30
2023-05-24T20:08:52.815Z,1.02
2023-05-24T20:11:24.645Z,1.25
2023-05-24T20:13:56.462Z,0.98
2023-05-24T20:16:28.516Z,1.25
2023-05-24T20:19:00.269Z,1.17
2023-05-24T20:21:32.887Z,1.35
2023-05-24T20:24:04.850Z,1.85
2023-05-24T20:26:37.043Z,1.08
2023-05-24T20:29:08.702Z,0.77
2023-05-24T20:31:40.377Z,1.10
2023-05-24T20:34:12.032Z,1.20
2023-05-24T20:36:45.797Z,1.45
2023-05-24T20:39:17.430Z,1.00
2023-05-24T20:41:49.214Z,0.88
2023-05-24T20:44:20.973Z,0.88
2023-05-24T20:46:52.596Z,2.70
2023-05-24T20:49:24.250Z,0.60
2023-05-24T20:51:55.869Z,0.85
2023-05-24T20:54:27.714Z,1.08
2023-05-24T20:56:59.768Z,0.88
2023-05-24T20:59:31.453Z,0.70
2023-05-24T21:02:06.847Z,0.93
2023-05-24T21:04:38.500Z,1.25
2023-05-24T21:07:10.116Z,1.50
2023-05-24T21:09:41.970Z,0.98
2023-05-24T21:12:13.825Z,0.70
2023-05-24T21:14:45.552Z,2.97
2023-05-24T21:17:17.279Z,0.95
2023-05-24T21:19:54.158Z,1.05
2023-05-24T21:22:27.304Z,1.23
2023-05-24T21:24:59.021Z,1.23
2023-05-24T21:27:30.748Z,1.60
2023-05-24T21:30:03.349Z,0.93
2023-05-24T21:32:35.165Z,1.08
2023-05-24T21:35:07.594Z,1.10
2023-05-24T21:37:39.270Z,0.77
2023-05-24T21:40:12.101Z,1.33
2023-05-24T21:42:44.587Z,1.38
2023-05-24T21:45:16.252Z,1.30
2023-05-24T21:47:47.984Z,1.95
2023-05-24T21:50:19.744Z,1.33
2023-05-24T21:52:51.448Z,1.30
2023-05-24T21:55:23.203Z,1.40
2023-05-24T21:57:55.590Z,1.13
2023-05-24T22:00:27.992Z,0.82
2023-05-24T22:03:00.226Z,1.00
2023-05-24T22:05:32.510Z,2.42
2023-05-24T22:08:04.982Z,0.90
2023-05-24T22:10:39.490Z,0.70
2023-05-24T22:13:13.601Z,0.85
2023-05-24T22:15:48.548Z,0.93
2023-05-24T22:18:21.235Z,0.88
2023-05-24T22:21:00.643Z,1.17
2023-05-24T22:23:32.527Z,0.80
2023-05-24T22:26:04.434Z,0.88
2023-05-24T22:29:00.469Z,0.47
2023-05-24T22:31:36.408Z,1.40
2023-05-24T22:34:11.843Z,0.45
2023-05-24T22:36:44.337Z,0.60
2023-05-24T22:39:16.113Z,0.50
2023-05-24T22:41:47.836Z,0.47
2023-05-24T22:44:20.222Z,1.25
2023-05-24T22:46:54.717Z,0.32
2023-05-24T22:49:29.604Z,0.10
2023-05-24T22:52:01.411Z,0.10
2023-05-24T22:54:33.384Z,0.45
2023-05-24T22:57:05.688Z,0.52
2023-05-24T22:59:37.540Z,0.25
2023-05-24T23:02:09.321Z,0.50
2023-05-24T23:04:41.112Z,0.28
2023-05-24T23:07:15.886Z,0.20
2023-05-24T23:09:50.657Z,0.20
2023-05-24T23:12:22.371Z,0.10
2023-05-24T23:14:54.209Z,0.17
2023-05-24T23:17:26.341Z,0.38
2023-05-24T23:19:59.323Z,0.32
2023-05-24T23:22:31.065Z,0.13
2023-05-24T23:25:03.431Z,0.30
2023-05-24T23:27:35.112Z,0.45
2023-05-24T23:30:07.814Z,0.28
2023-05-24T23:32:39.558Z,2.55
2023-05-24T23:35:11.473Z,0.10
2023-05-24T23:37:43.233Z,0.40
2023-05-24T23:40:15.132Z,0.05
2023-05-24T23:42:46.927Z,0.25
2023-05-24T23:45:19.134Z,0.05
2023-05-24T23:47:50.919Z,0.35
2023-05-24T23:50:23.034Z,0.35
2023-05-24T23:52:55.201Z,0.40
2023-05-24T23:55:27.262Z,0.55
2023-05-24T23:58:00.429Z,0.32
